Disclaimer   
PNR Super Search
 ♦ 
×
HashTag:
PNR Number:
Train Type:
Train:
From Station:
To Station:
Train Class:
2SSLCCEx3AFC2A1A3E
WL Quota:
DOJ From:
DOJ To:
Blogger:
Traveller:
Predictor:
Prediction:
WLRACConf
Stamper:
Final:
WLRACConfVoidQ-ConfUnStamped
Status:
Reaction:

Search
  Go  
 
Mon Apr 27, 2015 05:48:36 ISTHomeTrainsΣChainsAtlasPNRForumGalleryNewsFAQTripsMembersLoginFeedback
Mon Apr 27, 2015 05:48:36 IST
Post PNRPNR StatusModify Search

Ticket PNR Status Inquiry - PNR: 213-xxxxxxx (E-Ticket)

OLD STATUS

Status Last Updated on: Jul 15 2012 (4:19PM) IST

Date of Journey: Sun Aug 05, 2012   Class: AC 3-tier - 3A   (Total Seats available for this Class/Quota: Avbl >18)
Passenger 1: Confirmed (Booking Status: B1,40,GN)
Chart NOT Prepared

Amritsar - Mumbai LTT (Pathankot) Express/11058

Travel Time: 22h 28m    47 halts    Distance: 1125 km    Avg Speed: 50 km/hr
Peak Observed Speed: n/a
Type: Mail/Express
Zone: CR/Central
Departs @ 20:50 (Avg 23m late)
Platform# 4
SMTWTFS
NDLS/New Delhi 
Arrives @ 19:18 +1 night (Avg 1h 6m late)
Platform# 2
SMTWTFS
JL/Jalgaon Junction 

47 halts. 156 intermediate Stations between New Delhi and Jalgaon Junction

Show ALL intermediate Stations  Show Old Time-Table

#TrkCodeStation NameX/OArrivesAvgDepartsAvgHaltPFDay#KmSpeedElevZoneAddress
1/==/ASRAmritsar Junction  -08:30+741-502.977233mNRAmritsar 143001, Punjab
2/==/JNLJandialaX  08:45+1808:47+182m21-483.768238mNRJandiala, Punjab
3/==/BEASBeas JunctionX  09:08+1609:10+162m21-459.961238mNRBeas, Punjab
4/==/KREKartarpurX  09:31+1409:33+152m11-438.473236mNRKartarpur, Punjab
5/==/JUCJalandhar City JunctionX  09:45+2009:55+1910m21-423.818239mNRJalandhar 144001, Punjab
6/==/JRCJalandhar Cantt. JunctionX  10:11+1210:13+122m21-418.970239mNRNear Rama Mandi, Punjab
7/==/PGWPhagwara JunctionX  10:27+1310:29+132m11-402.654245mNRPhagwara, Punjab
8/==/GRYGoraya  10:40+1410:42+142m11-392.864240mNRGoraya, Punjab
9/==/PHRPhillaur JunctionX  10:54+1410:56+142m11-380.133246mNRPhillaur, Punjab
10/==/LDHLudhiana Junction  11:20+1011:30+2310m41-367.029246mNRLudhiana 141001, Punjab
11|--|AHHAhmadgarh  12:23+1512:25+162m11-341.679256mNRAhmedgarh, Punjab
12|--|METMalerkotlaX  12:40+2212:42+232m21-321.753248mNRMalerkotla., Punjab
13|--|DUIDhuri Junction  13:01+2413:04+263m--1-304.973248mNRDhuri, Punjab
14|--|NBANabha  13:26+3613:28+362m11-278.070250mNRNabha, Punjab
15|--|PTAPatialaX  13:50+4413:53+473m11-252.137256mNRPatiala 147001, Punjab
16|--|RPJRajpura JunctionXOO  14:33+4014:35+412m21-227.359272mNRNH-1., Punjab
17/==/UBCAmbala CityXO  14:56+3814:58+392m11-206.821273mNRNH-1, Haryana
18/==/UMBAmbala Cantt. JunctionXO15:20+3115:55+3135m--1-199.285278mNRAmbala 133001, Haryana
19/==/SHDMShahbad Markanda  16:09+3716:11+372m11-179.378267mNRShahabad Markanda, Haryana
20/==/KKDEKurukshetra JunctionX  16:28+3916:30+392m21-157.160260mNRKurukshetra, Haryana
21/==/NLKRNilokheriX  16:47+3716:49+372m--1-140.134254mNRNilokheri, Haryana
22/==/TRRTaraoriX  16:56+3516:58+362m21-136.140255mNRTaraori, Haryana
23/==/KUNKarnal  17:16+3317:18+332m11-124.066253mNRKarnal, Haryana
24/==/GRAGharaunda  17:34+3217:36+332m11-106.656244mNRGharaunda, Haryana
25/==/PNPPanipat JunctionX  17:54+3017:56+302m21-89.660235mNRPanipat, Haryana
26/==/SMKSamalkha  18:13+2718:15+272m11-72.657229mNRSamalkha, Haryana
27/==/GNUGanaur  18:28+2818:30+282m--1-60.460222mNRGanaur, Haryana
28/==/SNPSonipat  18:46+2918:48+302m11-44.548225mNRSonipat, Haryana
29/==/RDDERathdhanaX  19:01+3019:03+302m--1-34.050223mNRSonipat, Haryana
30/==/NURNarela  19:11+3019:13+302m--1-27.459222mNRNarela, Delhi NCT
31/==/ANDIAdarsh Nagar  19:30+3219:32+332m11-10.721214mNRShalimar Bagh, Delhi NCT
32/==/SZMDelhi Sabzi Mandi  19:51+2819:53+292m31-4.19220mNRGulabi Bagh, Delhi NCT
33/==/NDLSNew Delhi»X  20:20+2520:50+2330m410.034215mNRNew Delhi 110002, Delhi NCT
34/==/NZMDelhi Hazrat NizamuddinX  21:03+3121:05+312m417.457209mNRNew Delhi 110013, Delhi NCT
35/==/FDBFaridabadX  21:27+3421:29+382m3128.237206mNRold Faridabad, Haryana
36/==/BVHBallabgarhO  21:42+3821:44+392m4136.229203mNRFaridabad, Haryana
37/==/PWLPalwal  22:28+1522:30+172m5157.485200mNRPalwal, Haryana
38/==/KSVKosi Kalan  23:00+2723:02+292m2199.975189mNCRKosi Kalan, Uttar Pradesh
39/==/MTJMathura Junction  23:35+3423:40+345m11141.356179mNCRMathura, Uttar Pradesh
40/==/RKMRaja Ki MandiX  00:33+2900:35+302m22191.012170mNCRAgra, Uttar Pradesh
41/==/AGCAgra Cantt.X  00:55+2501:03+388m12195.079174mNCRAgra, Uttar Pradesh
42/==/DHODholpur JunctionXO  01:43+4601:45+482m22247.673177mNCRDholpur, Rajasthan
43/==/MRAMorenaX  02:07+5002:09+512m12274.556176mNCRMorena, Madhya Pradesh
44/==/GWLGwalior JunctionX  02:50+4702:58+458m12313.073214mNCRGwalior, Madhya Pradesh
45/==/DBADabraX  03:33+4903:35+502m22355.349207mNCRDabra(District-Gwalior), Madhya Pradesh
46/==/SORSonagirX  03:58+4404:00+462m--2374.246211mNCRDatia, Madhya Pradesh
47/==/DAADatiaX  04:15+4704:17+482m22385.746264mNCRDatia, Madhya Pradesh
48/==/JHSJhansi JunctionX  04:50+5105:00+5810m52410.761259mNCRJhansi, Uttar Pradesh
49/==/BABBabinaX  05:25+1:0405:27+1:052m12436.252285mNCRBabina, Uttar Pradesh
50/==/BZYBasai  05:41+1:0405:43+1:072m12448.351287mNCR07522289600, Madhya Pradesh
51/==/TBTTalbahatX  05:58+1:0706:00+1:092m12461.252314mNCRKhaniyadhana Station Rd, Madhya Pradesh
52/==/LARLalitpurX  06:46+5606:48+592m22501.177373mNCRLalitpur, Uttar Pradesh
53/==/JLNJakhalaunXO  07:01+1:0407:03+1:052m22517.899394mNCRLalitpur(05176-272220), Uttar Pradesh
54/==/DUADhauraXO  07:10+1:1007:12+1:152m--2529.420407mNCRDhaura Tanda, Madhya Pradesh
55/==/BINABina JunctionX  08:55+2309:00+265m32564.069414mWCRJunction point -KATNI/GUNA/ BPL/JHS District Saugor, Madhya Pradesh
56/==/MABAMandi BamoraX  09:15+3109:17+322m22581.278413mWCRState Highway 14 District Vidisha, Madhya Pradesh
57/==/BAQGanj BasodaX  09:39+3309:41+332m22609.769415mWCRDistrict Vidisha, Madhya Pradesh
58/==/GLGGulabGanjX  09:57+3309:59+342m--2628.074433mWCRVidisha, Madhya Pradesh
59/==/BHSVidishaX  10:16+3610:18+372m22649.056433mWCRVidisha, Madhya Pradesh
60/==/SCISanchiX  10:28+3810:30+392m--2658.466428mWCRRaisen, Madhya Pradesh
61/==/BPLBhopal JunctionX  11:10+4711:15+505m12702.538497mWCRBhopal, Madhya Pradesh
62/==/HBJBhopal HabibGanj  11:25+5311:27+542m42708.864496mWCRHabibGanj, Madhya Pradesh
63/==/MDDPMandi Dip  11:42+5711:44+572m12724.962455mWCRHoshangabad Road Mandideep District Raisen, Madhya Pradesh
64/==/ODGObaidulla Ganj  11:57+5811:59+592m12738.454448mWCRObaidullaganj Raisen Dist., Madhya Pradesh
65/==/BNIBudniX  12:33+1:0712:35+1:072m12769.246311mWCRDistrict Sehore 466445, Madhya Pradesh
66/==/HBDHoshangabadX  12:44+1:0712:46+1:082m22776.232308mWCRHoshangabad, Madhya Pradesh
67/==/ETItarsi JunctionX  13:20+1:0113:25+1:095m22794.384329mWCRItarsi 461111, Madhya Pradesh